Gibbsboro, NJ (08026)

5:16 PM EDT en Septiembre 02, 2014 (GMT -0400)
Franklin Square | Change Station
CLOSE
Current Station
Estación meteorológica personal
Location: Voorhees, NJ
Altura: 109 ft
Estaciones meteorológicas cercanas

Alt 109 ft 39.85 °N, 74.99 °W | Updated 4 seconds ago

Muy nublado
Muy nublado
91.1 ° F
Sensación térmica 99 ° F
N
4.0
Viento Variable Viento desde OSO
Gusts 4.0 mph

Hoy
Alta -- | Baja -- ° F
--% Posibilidad de precipitaciones
Ayer
Alta -- | Baja -- ° F
Precip. -- pul
6:28 AM 7:29 PM
Cuarto creciente, 55% visible
Presión 29.85 pul
Visibilidad 10.0 Millas
Nubes Despejado
Índice de calor 99 ° F
Punto de rocío 73 ° F
Humedad 55%
Precipitaciones 0.00 pul
Espesor de la nieve No disponible.
UV 3 de una escala de 12
Polen 8.60 de una escala de 12
Ozono Buena
PM2.5 Moderada
Flu Activity No disponible.
METAR KVAY 022054Z AUTO VRB04KT 10SM CLR 32/22 A2985 RMK AO2 SLP106 T03170222 56017

More Conditions Fewer Conditions

Presión 29.85 pul
Visibilidad 10.0 Millas
Nubes Despejado
Índice de calor 99 ° F
Punto de rocío 73 ° F
Humedad 55%
Precipitaciones 0.00 pul
Espesor de la nieve No disponible.
UV 3 de una escala de 12
Polen 8.60 de una escala de 12
Ozono Buena
PM2.5 Moderada
Flu Activity No disponible.
METAR KVAY 022054Z AUTO VRB04KT 10SM CLR 32/22 A2985 RMK AO2 SLP106 T03170222 56017

More Conditions Fewer Conditions

10-Day Weather Forecast

Almanac

Astronomía

Sep. 02, 2014 Salida Puesta
Hora real 6:28 AM EDT 7:29 PM EDT
Crepúsculo civil 6:01 AM EDT 7:57 PM EDT
Crepúsculo náutico 5:28 AM EDT 8:30 PM EDT
Crepúsculo astronómico 4:53 AM EDT 9:04 PM EDT
Luna 2:09 PM EDT Sin puesta de luna
Horas de luz 13h 56m
Horas de luz
13h 00m
Tomorrow will be 2m 31s shorter.
Cuarto creciente, 55% of the Moon is Illuminated
Hoy
Cuarto creciente
Sep 8
Luna llena
Sep 15
Cuarto menguante
Sep 24
Nueva
Oct 1
Cuarto creciente

Extremos de hoy

Máximos del estado Bajos del estado

Community

WunderPhotos

Upload Photos

1,749,769 ¡fotos cargadas!

Nearby

Calidad del aire

  Calidad del aire Índice AQ Contaminante
Ayer Buena
PM2.5
Ayer Buena
OZONE
Real Moderada
PM2.5
Real Buena
OZONE
Martes Nociva para grupos sensibles
OZONE
Martes Moderada
PM2.5
Miércoles Moderada
OZONE
Miércoles Moderada
PM2.5

Grosos de nieve

Estación Profundido Altura
No tenemos constancia de nieve nueva.

Actividad de terremotos

Ciudad Distance Mag. Tiempo y dato
No hay informes recientes de la actividad sísmica.
Magnitud mínima muestra es 2,5.

Temperaturas de aguas costeras

Lugar Temperatura
Ship John Shoal, NJ 78.1 ° F
Cape May, NJ 81.0 ° F
Reedy Point, DE 81.0 ° F
Delaware City, DE 79.0 ° F
Marcus Hook, PA 79.0 ° F

Estaciones meteorológicas cercanas